createdAt,value
2022-08-23T00:02:33.332Z,19.30
2022-08-23T00:05:20.137Z,18.30
2022-08-23T00:08:05.866Z,18.20
2022-08-23T00:10:51.572Z,18.20
2022-08-23T00:13:47.276Z,18.30
2022-08-23T00:16:33.540Z,18.20
2022-08-23T00:19:20.796Z,18.20
2022-08-23T00:22:08.201Z,18.30
2022-08-23T00:24:54.596Z,18.30
2022-08-23T00:27:39.799Z,18.30
2022-08-23T00:30:25.700Z,18.40
2022-08-23T00:33:11.419Z,19.50
2022-08-23T00:35:56.829Z,18.50
2022-08-23T00:38:42.148Z,18.50
2022-08-23T00:41:28.711Z,16.00
2022-08-23T00:44:41.940Z,19.70
2022-08-23T00:47:43.212Z,18.70
2022-08-23T00:50:53.338Z,18.70
2022-08-23T00:53:44.888Z,18.70
2022-08-23T00:56:34.243Z,18.70
2022-08-23T00:59:19.830Z,18.80
2022-08-23T01:02:05.531Z,18.70
2022-08-23T01:04:55.774Z,18.70
2022-08-23T01:07:52.550Z,18.70
2022-08-23T01:10:47.588Z,18.70
2022-08-23T01:13:42.488Z,18.80
2022-08-23T01:16:36.597Z,18.70
2022-08-23T01:19:32.942Z,18.70
2022-08-23T01:22:38.755Z,18.70
2022-08-23T01:25:27.311Z,18.70
2022-08-23T01:28:12.874Z,18.70
2022-08-23T01:30:58.435Z,18.60
2022-08-23T01:33:47.215Z,18.60
2022-08-23T01:36:32.995Z,18.70
2022-08-23T01:39:18.800Z,18.60
2022-08-23T01:42:07.566Z,18.60
2022-08-23T01:44:53.046Z,18.60
2022-08-23T01:47:38.505Z,18.60
2022-08-23T01:50:25.437Z,18.70
2022-08-23T01:53:13.154Z,18.70
2022-08-23T01:56:01.644Z,18.70
2022-08-23T01:58:48.368Z,18.80
2022-08-23T02:01:34.445Z,18.90
2022-08-23T02:04:20.169Z,18.80
2022-08-23T02:07:05.798Z,18.90
2022-08-23T02:09:51.155Z,16.80
2022-08-23T02:12:37.356Z,18.90
2022-08-23T02:15:22.956Z,19.00
2022-08-23T02:18:08.246Z,19.00
2022-08-23T02:20:54.032Z,19.00
2022-08-23T02:23:39.370Z,19.10
2022-08-23T02:26:30.833Z,19.20
2022-08-23T02:29:18.922Z,19.10
2022-08-23T02:32:05.277Z,19.10
2022-08-23T02:35:04.441Z,19.20
2022-08-23T02:37:52.709Z,19.20
2022-08-23T02:40:39.283Z,19.30
2022-08-23T02:43:24.769Z,19.10
2022-08-23T02:46:10.333Z,19.30
2022-08-23T02:48:56.398Z,18.80
2022-08-23T02:51:41.703Z,18.70
2022-08-23T02:54:27.025Z,16.20
2022-08-23T02:57:13.165Z,18.60
2022-08-23T02:59:58.630Z,18.50
2022-08-23T03:02:43.977Z,18.50
2022-08-23T03:05:31.247Z,18.50
2022-08-23T03:08:17.701Z,18.40
2022-08-23T03:11:02.889Z,18.40
2022-08-23T03:13:56.445Z,18.40
2022-08-23T03:16:42.395Z,18.40
2022-08-23T03:19:27.928Z,18.40
2022-08-23T03:22:13.954Z,18.40
2022-08-23T03:24:59.070Z,18.40
2022-08-23T03:27:44.731Z,18.50
2022-08-23T03:30:30.648Z,18.50
2022-08-23T03:33:16.035Z,18.40
2022-08-23T03:36:03.119Z,18.40
2022-08-23T03:38:48.823Z,18.40
2022-08-23T03:41:34.810Z,18.40
2022-08-23T03:44:20.313Z,18.50
2022-08-23T03:47:06.108Z,18.40
2022-08-23T03:49:51.873Z,18.40
2022-08-23T03:52:37.568Z,18.50
2022-08-23T03:55:22.728Z,18.50
2022-08-23T03:58:08.091Z,18.50
2022-08-23T04:00:53.663Z,18.50
2022-08-23T04:03:39.088Z,18.50
2022-08-23T04:06:24.513Z,18.60
2022-08-23T04:09:10.132Z,18.60
2022-08-23T04:11:55.594Z,18.60
2022-08-23T04:14:40.897Z,18.60
2022-08-23T04:17:26.478Z,18.80
2022-08-23T04:20:12.011Z,18.60
2022-08-23T04:22:57.820Z,18.80
2022-08-23T04:25:45.618Z,18.70
2022-08-23T04:28:31.258Z,18.80
2022-08-23T04:31:17.609Z,18.80
2022-08-23T04:34:04.003Z,18.80
2022-08-23T04:36:51.961Z,18.80
2022-08-23T04:39:59.906Z,18.90
2022-08-23T04:42:45.474Z,18.80
2022-08-23T04:45:31.346Z,18.90
2022-08-23T04:48:16.761Z,18.80
2022-08-23T04:51:02.155Z,18.90
2022-08-23T04:53:47.818Z,18.80
2022-08-23T04:56:33.698Z,18.90
2022-08-23T04:59:20.088Z,18.90
2022-08-23T05:02:05.663Z,18.90
2022-08-23T05:04:50.598Z,18.90
2022-08-23T05:07:42.384Z,18.90
2022-08-23T05:10:28.801Z,18.90
2022-08-23T05:13:14.376Z,18.90
2022-08-23T05:16:00.751Z,18.90
2022-08-23T05:18:46.726Z,19.00
2022-08-23T05:21:32.372Z,18.90
2022-08-23T05:24:17.719Z,19.00
2022-08-23T05:27:03.021Z,19.00
2022-08-23T05:29:48.786Z,19.00
2022-08-23T05:32:34.644Z,19.00
2022-08-23T05:35:19.997Z,19.10
2022-08-23T05:38:05.500Z,19.00
2022-08-23T05:40:52.648Z,19.10
2022-08-23T05:43:42.146Z,19.20
2022-08-23T05:46:28.580Z,19.10
2022-08-23T05:49:15.574Z,19.20
2022-08-23T05:52:09.325Z,19.20
2022-08-23T05:54:54.613Z,19.20
2022-08-23T05:57:40.677Z,19.20
2022-08-23T06:00:28.371Z,19.20
2022-08-23T06:03:23.585Z,19.20
2022-08-23T06:06:09.914Z,19.20
2022-08-23T06:08:55.313Z,19.40
2022-08-23T06:11:43.010Z,19.40
2022-08-23T06:14:28.723Z,19.50
2022-08-23T06:17:13.920Z,19.50
2022-08-23T06:19:59.104Z,19.60
2022-08-23T06:22:44.386Z,19.80
2022-08-23T06:25:29.661Z,19.80
2022-08-23T06:28:15.577Z,19.80
2022-08-23T06:31:01.051Z,19.80
2022-08-23T06:33:46.380Z,19.90
2022-08-23T06:36:31.871Z,20.00
2022-08-23T06:39:19.139Z,20.10
2022-08-23T06:42:37.125Z,20.00
2022-08-23T06:45:19.352Z,20.20
2022-08-23T06:48:08.316Z,20.20
2022-08-23T06:50:53.325Z,20.30
2022-08-23T06:53:38.659Z,20.10
2022-08-23T06:56:25.852Z,20.10
2022-08-23T06:59:12.225Z,20.00
2022-08-23T07:02:01.066Z,20.00
2022-08-23T07:04:46.483Z,20.10
2022-08-23T07:07:39.644Z,19.90
2022-08-23T07:10:29.998Z,19.90
2022-08-23T07:13:18.451Z,22.40
2022-08-23T07:16:04.524Z,20.20
2022-08-23T07:18:50.494Z,20.20
2022-08-23T07:21:37.487Z,20.20
2022-08-23T07:24:23.307Z,20.20
2022-08-23T07:27:10.028Z,20.20
2022-08-23T07:29:55.700Z,20.20
2022-08-23T07:32:41.211Z,20.30
2022-08-23T07:35:26.540Z,20.30
2022-08-23T07:38:12.248Z,20.50
2022-08-23T07:40:58.703Z,20.60
2022-08-23T07:43:44.648Z,20.70
2022-08-23T07:46:31.442Z,20.70
2022-08-23T07:49:17.417Z,20.80
2022-08-23T07:52:03.250Z,21.10
2022-08-23T07:54:49.547Z,21.00
2022-08-23T07:57:35.364Z,21.00
2022-08-23T08:00:21.073Z,22.50
2022-08-23T08:03:07.415Z,20.90
2022-08-23T08:05:52.996Z,20.90
2022-08-23T08:08:41.038Z,20.90
2022-08-23T08:11:32.298Z,20.90
2022-08-23T08:14:19.312Z,20.90
2022-08-23T08:17:04.701Z,20.90
2022-08-23T08:19:49.996Z,21.10
2022-08-23T08:22:35.558Z,21.40
2022-08-23T08:25:21.747Z,21.50
2022-08-23T08:28:09.433Z,21.50
2022-08-23T08:30:59.092Z,21.30
2022-08-23T08:33:44.554Z,21.20
2022-08-23T08:36:32.110Z,21.10
2022-08-23T08:39:37.211Z,21.00
2022-08-23T08:42:41.471Z,21.00
2022-08-23T08:45:36.281Z,21.10
2022-08-23T08:48:25.171Z,21.30
2022-08-23T08:51:26.251Z,21.50
2022-08-23T08:54:15.867Z,21.60
2022-08-23T08:57:02.218Z,21.70
2022-08-23T09:00:04.971Z,21.90
2022-08-23T09:02:52.003Z,21.80
2022-08-23T09:05:39.847Z,21.70
2022-08-23T09:09:04.350Z,21.60
2022-08-23T09:12:01.402Z,21.70
2022-08-23T09:15:05.942Z,21.70
2022-08-23T09:18:03.751Z,21.80
2022-08-23T09:20:53.699Z,22.10
2022-08-23T09:23:43.345Z,22.40
2022-08-23T09:26:30.770Z,22.50
2022-08-23T09:29:27.068Z,22.50
2022-08-23T09:32:26.562Z,22.40
2022-08-23T09:35:14.520Z,22.60
2022-08-23T09:38:15.214Z,22.80
2022-08-23T09:41:00.852Z,22.90
2022-08-23T09:43:49.941Z,23.00
2022-08-23T09:46:39.236Z,23.00
2022-08-23T09:49:29.964Z,23.00
2022-08-23T09:52:37.688Z,22.90
2022-08-23T09:55:35.212Z,22.80
2022-08-23T09:58:36.256Z,22.80
2022-08-23T10:01:27.970Z,22.80
2022-08-23T10:04:23.325Z,22.80
2022-08-23T10:07:24.302Z,22.60
2022-08-23T10:10:23.590Z,22.70
2022-08-23T10:13:09.486Z,22.60
2022-08-23T10:16:06.934Z,22.20
2022-08-23T10:19:24.431Z,22.10
2022-08-23T10:22:18.459Z,21.90
2022-08-23T10:25:33.312Z,22.10
2022-08-23T10:29:06.536Z,22.30
2022-08-23T10:32:10.126Z,24.50
2022-08-23T10:35:07.876Z,22.30
2022-08-23T10:38:13.458Z,22.20
2022-08-23T10:41:05.795Z,22.20
2022-08-23T10:44:11.657Z,22.10
2022-08-23T10:47:14.442Z,22.20
2022-08-23T10:50:07.213Z,22.50
2022-08-23T10:52:57.106Z,22.60
2022-08-23T10:56:07.581Z,22.70
2022-08-23T10:59:14.377Z,22.70
2022-08-23T11:02:14.988Z,22.80
2022-08-23T11:05:22.547Z,22.90
2022-08-23T11:08:11.258Z,22.80
2022-08-23T11:10:57.121Z,23.00
2022-08-23T11:13:54.692Z,23.20
2022-08-23T11:16:45.679Z,23.20
2022-08-23T11:19:49.724Z,23.30
2022-08-23T11:22:58.084Z,23.40
2022-08-23T11:25:45.914Z,23.50
2022-08-23T11:28:44.505Z,23.60
2022-08-23T11:31:37.717Z,23.50
2022-08-23T11:34:30.920Z,23.60
2022-08-23T11:37:18.950Z,23.60
2022-08-23T11:40:11.091Z,23.30
2022-08-23T11:43:07.564Z,23.10
2022-08-23T11:45:53.613Z,23.00
2022-08-23T11:48:43.792Z,23.00
2022-08-23T11:51:37.745Z,23.10
2022-08-23T11:55:03.928Z,23.20
2022-08-23T11:58:06.217Z,23.10
2022-08-23T12:01:10.110Z,23.00
2022-08-23T12:04:11.634Z,23.00
2022-08-23T12:07:03.057Z,23.20
2022-08-23T12:09:54.705Z,23.20
2022-08-23T12:12:47.045Z,23.10
2022-08-23T12:16:17.069Z,23.40
2022-08-23T12:19:07.449Z,23.90
2022-08-23T12:21:56.967Z,24.10
2022-08-23T12:24:47.060Z,24.10
2022-08-23T12:27:49.034Z,24.10
2022-08-23T12:30:44.409Z,24.10
2022-08-23T12:33:38.987Z,24.20
2022-08-23T12:37:05.394Z,24.20
2022-08-23T12:39:57.513Z,24.30
2022-08-23T12:42:43.409Z,24.10
2022-08-23T12:45:38.280Z,23.80
2022-08-23T12:48:32.198Z,23.70
2022-08-23T12:51:17.534Z,23.80
2022-08-23T12:54:14.483Z,24.10
2022-08-23T12:57:00.441Z,24.20
2022-08-23T13:00:17.333Z,24.30
2022-08-23T13:03:21.546Z,24.40
2022-08-23T13:06:14.298Z,24.50
2022-08-23T13:09:12.316Z,24.70
2022-08-23T13:11:59.014Z,24.90
2022-08-23T13:14:48.673Z,25.10
2022-08-23T13:17:38.694Z,25.10
2022-08-23T13:20:24.584Z,25.30
2022-08-23T13:23:10.060Z,25.50
2022-08-23T13:25:55.492Z,25.80
2022-08-23T13:28:41.038Z,25.90
2022-08-23T13:31:26.488Z,25.50
2022-08-23T13:34:11.744Z,25.40
2022-08-23T13:37:03.159Z,25.10
2022-08-23T13:39:56.028Z,24.90
2022-08-23T13:42:56.982Z,24.80
2022-08-23T13:45:55.701Z,24.70
2022-08-23T13:49:01.776Z,24.60
2022-08-23T13:52:11.978Z,24.90
2022-08-23T13:55:05.732Z,25.30
2022-08-23T13:57:51.523Z,25.60
2022-08-23T14:00:36.827Z,25.70
2022-08-23T14:03:22.838Z,25.80
2022-08-23T14:06:08.267Z,25.90
2022-08-23T14:08:53.664Z,25.90
2022-08-23T14:11:39.352Z,26.00
2022-08-23T14:14:26.083Z,26.30
2022-08-23T14:17:13.205Z,26.10
2022-08-23T14:23:12.259Z,26.30
2022-08-23T14:25:59.639Z,26.40
2022-08-23T14:28:46.312Z,26.60
2022-08-23T14:31:32.206Z,26.70
2022-08-23T14:34:17.253Z,26.70
2022-08-23T14:40:09.478Z,26.50
2022-08-23T14:42:55.185Z,26.20
2022-08-23T14:45:40.528Z,25.80
2022-08-23T14:48:25.889Z,25.60
2022-08-23T14:51:28.028Z,25.50
2022-08-23T14:54:18.782Z,25.20
2022-08-23T14:57:04.484Z,24.90
2022-08-23T14:59:50.163Z,24.60
2022-08-23T15:02:36.667Z,24.50
2022-08-23T15:05:22.114Z,24.40
2022-08-23T15:08:07.615Z,24.50
2022-08-23T15:12:58.299Z,24.50
2022-08-23T15:14:00.654Z,24.40
2022-08-23T15:16:46.252Z,24.40
2022-08-23T15:19:31.765Z,24.10
2022-08-23T15:22:18.897Z,24.00
2022-08-23T15:25:08.137Z,23.70
2022-08-23T15:27:53.920Z,23.60
2022-08-23T15:30:39.614Z,23.50
2022-08-23T15:33:26.966Z,23.50
2022-08-23T15:36:14.276Z,23.40
2022-08-23T15:39:00.698Z,23.40
2022-08-23T15:41:46.133Z,23.30
2022-08-23T15:44:31.602Z,23.20
2022-08-23T15:47:22.067Z,23.10
2022-08-23T15:50:07.755Z,23.00
2022-08-23T15:52:53.811Z,22.80
2022-08-23T15:55:41.643Z,22.80
2022-08-23T15:58:27.792Z,22.60
2022-08-23T16:01:13.461Z,22.50
2022-08-23T16:04:01.812Z,22.50
2022-08-23T16:06:47.847Z,22.40
2022-08-23T16:09:34.669Z,22.20
2022-08-23T16:12:19.887Z,22.30
2022-08-23T16:15:06.236Z,22.10
2022-08-23T16:17:51.640Z,22.00
2022-08-23T16:20:36.845Z,21.90
2022-08-23T16:23:23.045Z,21.70
2022-08-23T16:26:15.138Z,21.60
2022-08-23T16:29:01.609Z,21.50
2022-08-23T16:31:48.008Z,21.40
2022-08-23T16:34:34.073Z,21.30
2022-08-23T16:37:20.779Z,21.40
2022-08-23T16:40:08.193Z,21.20
2022-08-23T16:42:54.146Z,21.20
2022-08-23T16:45:39.208Z,21.10
2022-08-23T16:48:24.996Z,21.10
2022-08-23T16:51:12.323Z,21.10
2022-08-23T16:54:02.720Z,21.10
2022-08-23T16:56:48.970Z,21.00
2022-08-23T16:59:40.345Z,20.90
2022-08-23T17:02:32.004Z,20.90
2022-08-23T17:05:19.110Z,20.80
2022-08-23T17:08:04.721Z,20.80
2022-08-23T17:10:50.674Z,20.80
2022-08-23T17:13:36.271Z,20.80
2022-08-23T17:16:22.544Z,20.70
2022-08-23T17:19:08.470Z,20.80
2022-08-23T17:21:54.271Z,20.70
2022-08-23T17:24:40.333Z,20.70
2022-08-23T17:27:26.199Z,20.70
2022-08-23T17:30:16.307Z,20.70
2022-08-23T17:33:02.498Z,20.70
2022-08-23T17:35:48.321Z,20.70
2022-08-23T17:38:34.503Z,20.60
2022-08-23T17:41:20.223Z,20.70
2022-08-23T17:44:06.457Z,20.70
2022-08-23T17:46:51.772Z,20.60
2022-08-23T17:49:37.554Z,20.60
2022-08-23T17:52:26.205Z,20.60
2022-08-23T17:55:13.046Z,20.60
2022-08-23T17:58:03.963Z,20.70
2022-08-23T18:00:49.945Z,20.70
2022-08-23T18:03:36.211Z,20.70
2022-08-23T18:06:22.294Z,20.70
2022-08-23T18:09:08.700Z,20.70
2022-08-23T18:11:54.258Z,20.70
2022-08-23T18:14:39.737Z,20.70
2022-08-23T18:17:25.460Z,20.70
2022-08-23T18:20:11.595Z,20.70
2022-08-23T18:22:58.767Z,20.60
2022-08-23T18:25:45.811Z,21.70
2022-08-23T18:28:31.116Z,19.00
2022-08-23T18:31:17.309Z,21.60
2022-08-23T18:34:03.688Z,20.40
2022-08-23T18:36:49.284Z,20.30
2022-08-23T18:39:36.156Z,20.90
2022-08-23T18:42:22.774Z,20.10
2022-08-23T18:45:09.254Z,22.50
2022-08-23T18:47:54.952Z,20.10
2022-08-23T18:50:42.022Z,20.10
2022-08-23T18:53:27.701Z,20.00
2022-08-23T18:56:13.418Z,19.90
2022-08-23T18:58:58.687Z,19.90
2022-08-23T19:01:45.370Z,19.90
2022-08-23T19:04:31.176Z,19.80
2022-08-23T19:07:16.718Z,19.80
2022-08-23T19:10:02.825Z,19.70
2022-08-23T19:12:54.188Z,19.80
2022-08-23T19:15:42.117Z,19.70
2022-08-23T19:18:27.836Z,19.70
2022-08-23T19:21:18.318Z,19.60
2022-08-23T19:24:04.986Z,19.60
2022-08-23T19:26:50.728Z,19.50
2022-08-23T19:29:36.186Z,19.50
2022-08-23T19:32:21.962Z,19.50
2022-08-23T19:35:08.008Z,19.60
2022-08-23T19:37:53.656Z,19.50
2022-08-23T19:40:38.938Z,19.50
2022-08-23T19:43:25.638Z,19.40
2022-08-23T19:46:18.020Z,19.50
2022-08-23T19:49:07.063Z,19.50
2022-08-23T19:51:52.760Z,19.40
2022-08-23T19:54:38.033Z,19.40
2022-08-23T19:57:25.505Z,19.40
2022-08-23T20:00:19.110Z,19.40
2022-08-23T20:03:05.334Z,19.40
2022-08-23T20:05:51.621Z,19.40
2022-08-23T20:08:36.853Z,19.40
2022-08-23T20:11:22.249Z,19.40
2022-08-23T20:14:08.264Z,19.40
2022-08-23T20:16:55.397Z,19.40
2022-08-23T20:19:41.892Z,19.50
2022-08-23T20:22:45.809Z,19.40
2022-08-23T20:25:31.477Z,19.50
2022-08-23T20:28:16.739Z,19.40
2022-08-23T20:31:19.854Z,19.40
2022-08-23T20:34:07.445Z,19.50
2022-08-23T20:36:56.293Z,19.40
2022-08-23T20:39:41.980Z,19.40
2022-08-23T20:42:27.943Z,19.50
2022-08-23T20:45:13.270Z,19.60
2022-08-23T20:47:58.772Z,19.50
2022-08-23T20:50:44.497Z,19.50
2022-08-23T20:53:29.668Z,19.50
2022-08-23T20:56:16.114Z,19.50
2022-08-23T20:59:01.792Z,19.50
2022-08-23T21:01:47.979Z,19.50
2022-08-23T21:04:33.698Z,19.50
2022-08-23T21:07:19.063Z,19.50
2022-08-23T21:10:05.195Z,19.50
2022-08-23T21:12:54.035Z,19.50
2022-08-23T21:15:39.672Z,19.50
2022-08-23T21:18:24.886Z,19.50
2022-08-23T21:21:10.775Z,19.50
2022-08-23T21:23:56.974Z,19.60
2022-08-23T21:26:42.559Z,19.60
2022-08-23T21:29:27.615Z,19.50
2022-08-23T21:32:13.112Z,19.50
2022-08-23T21:34:58.656Z,19.50
2022-08-23T21:37:44.536Z,19.50
2022-08-23T21:40:31.147Z,19.50
2022-08-23T21:43:16.336Z,19.40
2022-08-23T21:46:02.092Z,19.40
2022-08-23T21:48:47.636Z,19.40
2022-08-23T21:51:34.885Z,19.40
2022-08-23T21:54:21.061Z,19.40
2022-08-23T21:57:07.249Z,19.40
2022-08-23T21:59:53.237Z,19.40
2022-08-23T22:02:40.085Z,19.40
2022-08-23T22:05:26.584Z,19.40
2022-08-23T22:08:14.309Z,19.40
2022-08-23T22:11:07.151Z,19.40
2022-08-23T22:13:53.917Z,19.40
2022-08-23T22:16:41.022Z,19.50
2022-08-23T22:19:26.136Z,19.40
2022-08-23T22:22:11.683Z,19.40
2022-08-23T22:24:57.704Z,19.40
2022-08-23T22:27:44.702Z,19.40
2022-08-23T22:30:30.207Z,19.40
2022-08-23T22:33:15.527Z,19.40
2022-08-23T22:36:05.488Z,19.40
2022-08-23T22:38:51.470Z,19.30
2022-08-23T22:41:38.110Z,19.30
2022-08-23T22:44:23.356Z,19.30
2022-08-23T22:47:08.893Z,19.30
2022-08-23T22:49:54.607Z,19.30
2022-08-23T22:52:40.472Z,19.20
2022-08-23T22:55:25.525Z,19.30
2022-08-23T22:58:11.103Z,19.10
2022-08-23T23:00:56.692Z,19.20
2022-08-23T23:03:42.676Z,19.10
2022-08-23T23:06:28.858Z,19.10
2022-08-23T23:09:15.110Z,19.10
2022-08-23T23:12:00.417Z,19.00
2022-08-23T23:14:45.816Z,19.00
2022-08-23T23:17:31.230Z,19.00
2022-08-23T23:20:37.022Z,19.00
2022-08-23T23:23:22.687Z,19.00
2022-08-23T23:26:08.527Z,18.90
2022-08-23T23:28:54.663Z,18.90
2022-08-23T23:31:40.395Z,18.90
2022-08-23T23:34:26.606Z,18.90
2022-08-23T23:37:12.414Z,18.90
2022-08-23T23:39:58.884Z,18.90
2022-08-23T23:42:44.374Z,18.90
2022-08-23T23:45:30.004Z,18.90
2022-08-23T23:48:16.434Z,18.90
2022-08-23T23:51:05.016Z,18.90
2022-08-23T23:53:51.149Z,19.00
2022-08-23T23:56:36.722Z,19.00
2022-08-23T23:59:22.039Z,19.00
